Flight Track Log - Related Links

Times and Time Zones

All times are in EDT time to prevent confusion due to time zone crossing. See the CHQ6138 flight status page for this flight to view local times or setup timezone preferences in your user account.

Time Position Orientation Groundspeed Altitude Reporting Facility
EDT Latitude Longitude Course Direction KTS MPH feet Rate Location/Type
Tue 03:56:15 PM 42.2317 -83.3342 90° East 158 182 1,200  Level Cleveland Center
Tue 03:56:57 PM 42.2592 -83.3042 39° Northeast 198 228 2,600 1,981 Climbing Cleveland Center
Tue 03:57:58 PM 42.3114 -83.2522 36° Northeast 245 282 4,600 1,756 Climbing Cleveland Center
Tue 03:58:19 PM 42.3231 -83.2406 36° Northeast 245 282 5,000 2,459 Climbing Cleveland Center
Tue 03:58:59 PM 42.3586 -83.1825 50° Northeast 268 308 7,100 2,516 Climbing Cleveland Center
Tue 03:59:00 PM 42.2167 -82.9145 90° East  Level FlightAware Approximate
Tue 03:59:21 PM 42.3622 -83.1636 75° East 255 293 7,600  Level Cleveland Center
Tue 04:00:00 PM 42.2167 -82.7681 90° East  Level FlightAware Approximate
Tue 04:00:00 PM 42.3494 -83.0822 102° East 290 334 9,200  Level Cleveland Center
Tue 04:00:23 PM 42.3458 -83.0633 104° East 274 315 9,600 1,694 Climbing Cleveland Center
Tue 04:01:00 PM 42.2167 -82.6217 90° East  Level FlightAware Approximate
Tue 04:01:25 PM 42.3206 -82.9347 105° East 292 336 11,600  Level Cleveland Center
Tue 04:02:27 PM 42.2978 -82.8142 104° East 321 369 13,000 1,440 Climbing Cleveland Center
Tue 04:03:30 PM 42.2725 -82.6906 105° East 338 389 14,600 1,440 Climbing Cleveland Center
Tue 04:04:32 PM 42.2478 -82.5642 105° East 346 398 16,000 1,306 Climbing Cleveland Center
Tue 04:05:34 PM 42.2236 -82.4322 104° East 358 412 17,300 1,500 Climbing Cleveland Center
Tue 04:06:36 PM 42.2136 -82.2956 96° East 364 419 19,100 1,839 Climbing Cleveland Center
Tue 04:07:38 PM 42.2028 -82.1297 95° East 365 420 21,100 1,694 Climbing Cleveland Center
Tue 04:08:40 PM 42.1942 -81.9967 95° East 367 422 22,600 1,452 Climbing Cleveland Center
Tue 04:09:42 PM 42.1444 -81.8819 120° Southeast 359 413 24,100 1,452 Climbing Cleveland Center
Tue 04:10:44 PM 42.0703 -81.7986 140° Southeast 351 404 25,600 1,452 Climbing Cleveland Center
Tue 04:11:46 PM 41.9978 -81.7128 139° Southeast 349 402 27,100 1,440 Climbing Cleveland Center
Tue 04:12:49 PM 41.9114 -81.6131 139° Southeast 344 396 28,600 912 Climbing Cleveland Center
Tue 04:13:51 PM 41.8356 -81.5294 141° Southeast 354 407 29,000 194 Climbing Cleveland Center
Tue 04:14:53 PM 41.7547 -81.4336 138° Southeast 385 443 29,000  Level Cleveland Center
Tue 04:15:55 PM 41.6692 -81.3394 141° Southeast 401 461 29,000  Level Cleveland Center
Tue 04:16:57 PM 41.5789 -81.2378 140° Southeast 420 483 29,000  Level Cleveland Center
Tue 04:17:59 PM 41.4758 -81.1128 138° Southeast 422 486 29,000  Level Cleveland Center
Tue 04:19:01 PM 41.3958 -81.0006 134° Southeast 422 486 29,000  Level Cleveland Center
Tue 04:20:03 PM 41.3169 -80.8897 133° Southeast 416 479 29,000  Level Cleveland Center
Tue 04:21:06 PM 41.2400 -80.7789 133° Southeast 413 475 29,000  Level Cleveland Center
Tue 04:22:08 PM 41.1617 -80.6717 134° Southeast 409 471 29,000  Level Cleveland Center
Tue 04:23:10 PM 41.0847 -80.5664 134° Southeast 404 465 29,000  Level Cleveland Center
Tue 04:24:12 PM 40.9925 -80.4389 134° Southeast 403 464 29,000  Level Cleveland Center
Tue 04:25:14 PM 40.9167 -80.3336 134° Southeast 397 457 29,000  Level Cleveland Center
Tue 04:26:16 PM 40.8419 -80.2300 134° Southeast 398 458 29,000  Level Cleveland Center
Tue 04:27:18 PM 40.7672 -80.1239 133° Southeast 398 458 29,000  Level Cleveland Center
Tue 04:28:20 PM 40.6928 -80.0172 133° Southeast 398 458 29,000  Level Cleveland Center
Tue 04:29:22 PM 40.6133 -79.9039 133° Southeast 397 457 29,000  Level Cleveland Center
Tue 04:30:25 PM 40.5392 -79.7969 132° Southeast 394 453 29,000 -144 Level Cleveland Center
Tue 04:31:27 PM 40.4658 -79.6869 131° Southeast 394 453 28,700 -726 Descending Cleveland Center
Tue 04:32:29 PM 40.3764 -79.5544 132° Southeast 402 463 27,500 -1,016 Descending Cleveland Center
Tue 04:33:31 PM 40.3408 -79.4119 108° East 414 476 26,600 -968 Descending Cleveland Center
Tue 04:34:33 PM 40.3392 -79.2467 91° East 429 494 25,500 -774 Descending Cleveland Center
Tue 04:35:35 PM 40.3369 -79.0950 91° East 424 488 25,000 -242 Descending Cleveland Center
Tue 04:36:37 PM 40.3342 -78.9436 91° East 421 484 25,000  Level Cleveland Center
Tue 04:37:39 PM 40.3319 -78.7922 91° East 420 483 25,000  Level Cleveland Center
Tue 04:38:41 PM 40.3281 -78.6092 92° East 422 486 25,000  Level Cleveland Center
Tue 04:39:43 PM 40.3253 -78.4553 91° East 424 488 25,000  Level Cleveland Center
Tue 04:40:45 PM 40.3217 -78.3031 92° East 424 488 25,000  Level Cleveland Center
Tue 04:41:47 PM 40.3175 -78.1519 92° East 423 487 25,000  Level Cleveland Center
Tue 04:42:49 PM 40.3128 -77.9964 92° East 424 488 25,000  Level Cleveland Center
Tue 04:43:52 PM 40.3125 -77.8053 90° East 424 488 25,000 -683 Level New York Center
Tue 04:44:52 PM 40.3092 -77.6494 92° East 429 494 23,600 -1,450 Descending New York Center
Tue 04:45:52 PM 40.3092 -77.5053 90° East 423 487 22,100 -1,550 Descending New York Center
Tue 04:46:52 PM 40.2919 -77.3675 99° East 397 457 20,500 -1,450 Descending New York Center
Tue 04:47:52 PM 40.2714 -77.2458 102° East 379 436 19,200 -1,550 Descending New York Center
Tue 04:48:52 PM 40.2500 -77.1050 101° East 360 414 17,400 -1,100 Descending New York Center
Tue 04:49:52 PM 40.2294 -76.9781 102° East 360 414 17,000 -200 Descending New York Center
Tue 04:50:52 PM 40.2092 -76.8511 102° East 360 414 17,000  Level New York Center
Tue 04:51:52 PM 40.1889 -76.7161 101° East 368 423 17,000  Level New York Center
Tue 04:52:52 PM 40.1697 -76.5950 102° East 374 430 17,000 -800 Level New York Center
Tue 04:53:52 PM 40.1542 -76.4469 98° East 379 436 15,400 -1,750 Descending New York Center
Tue 04:54:52 PM 40.1414 -76.3183 97° East 365 420 13,500 -1,950 Descending New York Center
Tue 04:55:52 PM 40.1303 -76.1981 97° East 343 395 11,500 -1,750 Descending New York Center
Tue 04:56:52 PM 40.1183 -76.0992 99° East 319 367 10,000 -1,700 Descending New York Center
Tue 04:57:52 PM 40.1067 -75.9872 98° East 290 334 8,100 -1,700 Descending New York Center
Tue 04:58:52 PM 40.0964 -75.8886 98° East 279 321 6,600 -874 Descending New York Center
Tue 05:01:18 PM 40.1167 -75.6500 84° East 266 306 5,100 -700 Descending Philadelphia TRACON
Tue 05:01:52 PM 40.1164 -75.6106 91° East 251 289 4,500 -702 Descending New York Center
Tue 05:02:52 PM 40.1233 -75.5406 83° East 230 265 4,000 -250 Descending New York Center
Tue 05:03:52 PM 40.1311 -75.4542 83° East 217 250 4,000  Level New York Center
Tue 05:04:52 PM 40.1375 -75.3975 82° East 186 214 4,000  Level New York Center
Tue 05:05:52 PM 40.1442 -75.3300 83° East 168 193 4,000 -350 Level New York Center
Tue 05:06:52 PM 40.1067 -75.3303 180° South 106 122 3,300 -750 Descending New York Center
Tue 05:07:52 PM 40.0569 -75.3242 175° South 142 163 2,500 -557 Descending New York Center
Tue 05:09:12 PM 40.0000 -75.3000 162° South 176 203 2,000 -343 Descending Philadelphia TRACON
Tue 05:10:12 PM 39.9667 -75.2667 143° Southeast 131 151 1,700 -545 Descending Philadelphia TRACON
Tue 05:11:13 PM 39.9333 -75.2500 159° South 136 157 900 -783 Descending Philadelphia TRACON
Tue 05:12:07 PM 39.9000 -75.2333 159° South 133 153 200 -778 Descending Philadelphia TRACON

Login

Don't have an account? Register now (free) for customized features, flight alerts, and more!